.
WxDataArchive / Data Records for 2010-06-22
2010-06-21 June 2010 2010-06-23

Data Records for Tuesday, 22 June 2010

Time	Temp	Chill	HIndex	Humid	Dewpt	 Wind 	HiWind	WindDir	Rain 	Barom 
-----	----	-----	------	-----	-----	------	------	-------	-----	----- 
00:00	75.6	75.6	76.2	82	69.7	0	1	135	0.00	29.988 
00:05	75.6	75.6	76.2	82	69.7	0	1	135	0.00	29.988 
00:10	75.6	75.6	76.1	83	70.1	0	0	---	0.00	29.988 
00:15	75.6	75.6	76.1	83	70.1	0	0	---	0.00	30.000 
00:20	75.4	75.4	75.8	83	69.9	0	1	135	0.00	30.000 
00:25	75.4	75.4	75.8	83	69.9	0	0	---	0.00	30.000 
00:30	75.4	75.4	75.7	84	70.2	0	0	---	0.00	29.994 
00:35	75.4	75.4	75.7	84	70.2	0	1	135	0.00	29.994 
00:40	75.4	75.4	75.7	84	70.2	0	1	135	0.00	29.994 
00:45	75.3	75.3	75.5	84	70.1	0	1	135	0.00	29.984 
00:50	75.3	75.3	75.4	85	70.5	0	1	135	0.00	29.984 
00:55	75.3	75.3	75.4	85	70.5	0	1	135	0.00	29.984 
01:00	75.3	75.3	75.4	85	70.5	0	4	135	0.00	29.983 
01:05	75.4	75.4	75.5	85	70.6	0	2	68	0.00	29.983 
01:10	75.4	75.4	75.4	86	70.9	0	3	68	0.00	29.983 
01:15	75.4	75.4	75.4	86	70.9	0	1	90	0.00	29.975 
01:20	75.4	75.4	75.3	87	71.2	0	1	90	0.00	29.975 
01:25	75.4	75.4	75.1	88	71.6	0	2	202	0.00	29.975 
01:30	75.3	75.3	75.0	88	71.5	0	2	90	0.00	29.962 
01:35	75.3	75.3	74.8	89	71.8	0	2	270	0.00	29.962 
01:40	75.1	75.1	74.4	89	71.6	0	2	270	0.00	29.962 
01:45	75.1	75.1	74.3	90	72.0	0	2	270	0.00	29.960 
01:50	75.1	75.1	74.3	90	72.0	1	4	270	0.00	29.960 
01:55	75.1	75.1	74.1	91	72.3	1	4	270	0.01	29.960 
02:00	75.1	75.1	74.1	91	72.3	1	5	248	0.00	29.961 
02:05	75.3	75.3	74.3	92	72.8	2	4	270	0.00	29.961 
02:10	75.3	75.3	74.3	92	72.8	2	5	270	0.00	29.961 
02:15	75.3	75.3	74.3	92	72.8	1	5	292	0.00	29.944 
02:20	75.4	75.4	74.5	92	72.9	2	9	248	0.00	29.944 
02:25	75.4	75.4	74.5	92	72.9	2	6	248	0.00	29.944 
02:30	75.4	75.4	74.5	92	72.9	1	6	248	0.00	29.926 
02:35	75.4	75.4	74.5	92	72.9	1	4	248	0.00	29.926 
02:40	75.4	75.4	74.5	92	72.9	2	5	248	0.00	29.926 
02:45	75.3	75.3	74.3	92	72.8	1	4	248	0.01	29.925 
02:50	75.1	75.1	74.1	91	72.3	1	4	248	0.00	29.925 
02:55	74.7	74.7	74.7	90	71.6	2	5	248	0.00	29.925 
03:00	74.4	74.4	74.4	89	70.9	2	9	270	0.00	29.942 
03:05	74.2	74.2	74.2	88	70.4	2	8	270	0.00	29.942 
03:10	74.4	74.4	74.4	87	70.3	2	6	270	0.00	29.942 
03:15	74.4	74.4	74.4	87	70.3	2	5	270	0.00	29.927 
03:20	74.2	74.2	74.2	86	69.7	1	5	270	0.00	29.927 
03:25	74.2	74.2	74.2	85	69.4	1	5	225	0.00	29.927 
03:30	74.0	74.0	74.0	85	69.2	0	3	225	0.00	29.925 
03:35	73.9	73.9	73.9	85	69.1	1	2	315	0.00	29.925 
03:40	73.7	73.7	73.7	85	68.9	1	2	225	0.00	29.925 
03:45	73.5	73.5	73.5	84	68.4	1	4	270	0.00	29.945 
03:50	73.3	73.3	73.3	84	68.2	2	6	270	0.00	29.945 
03:55	73.2	73.2	73.2	83	67.7	3	7	270	0.00	29.945 
04:00	73.0	73.0	73.0	81	66.8	3	9	270	0.00	29.966 
04:05	72.7	72.7	72.7	80	66.2	2	6	248	0.00	29.966 
04:10	72.5	72.5	72.5	80	66.0	2	6	248	0.00	29.966 
04:15	72.5	72.5	72.5	80	66.0	3	11	270	0.00	29.946 
04:20	72.1	72.1	72.1	82	66.3	3	10	270	0.01	29.946 
04:25	71.3	71.3	71.3	84	66.2	3	9	270	0.01	29.946 
04:30	70.6	70.6	70.6	87	66.5	3	7	270	0.01	29.967 
04:35	70.3	70.3	70.3	88	66.6	2	6	270	0.01	29.967 
04:40	69.9	69.9	69.9	89	66.5	3	7	270	0.00	29.967 
04:45	69.8	69.8	69.8	90	66.7	3	7	270	0.00	29.960 
04:50	69.8	69.8	69.8	90	66.7	2	6	270	0.00	29.960 
04:55	69.6	69.6	69.6	90	66.5	2	4	270	0.00	29.960 
05:00	69.6	69.6	69.6	90	66.5	2	13	248	0.00	29.962 
05:05	69.4	69.4	69.4	90	66.3	2	5	248	0.00	29.962 
05:10	69.4	69.4	69.4	90	66.3	2	5	270	0.00	29.962 
05:15	69.3	69.3	69.3	89	65.9	2	9	270	0.00	29.959 
05:20	69.3	69.3	69.3	89	65.9	1	6	248	0.00	29.959 
05:25	69.1	69.1	69.1	88	65.4	1	5	248	0.00	29.959 
05:30	69.1	69.1	69.1	88	65.4	2	5	292	0.00	29.958 
05:35	69.1	69.1	69.1	88	65.4	1	5	248	0.00	29.958 
05:40	69.1	69.1	69.1	88	65.4	1	3	248	0.00	29.958 
05:45	68.9	68.9	68.9	88	65.2	2	6	248	0.00	29.948 
05:50	68.9	68.9	68.9	88	65.2	1	5	270	0.00	29.948 
05:55	68.9	68.9	68.9	88	65.2	1	3	270	0.00	29.948 
06:00	68.9	68.9	68.9	88	65.2	1	4	248	0.00	29.946 
06:05	68.9	68.9	68.9	88	65.2	1	3	248	0.00	29.946 
06:10	68.8	68.8	68.8	88	65.1	1	3	248	0.00	29.946 
06:15	68.6	68.6	68.6	88	64.9	1	4	248	0.00	29.954 
06:20	68.6	68.6	68.6	88	64.9	0	2	315	0.00	29.954 
06:25	68.4	68.4	68.4	88	64.7	1	3	315	0.00	29.954 
06:30	68.4	68.4	68.4	88	64.7	0	1	248	0.00	29.959 
06:35	68.4	68.4	68.4	88	64.7	1	2	248	0.00	29.959 
06:40	68.6	68.6	68.6	88	64.9	1	3	248	0.00	29.959 
06:45	68.6	68.6	68.6	88	64.9	1	2	248	0.00	29.974 
06:50	68.6	68.6	68.6	88	64.9	1	4	248	0.00	29.974 
06:55	68.8	68.8	68.8	87	64.8	1	3	248	0.00	29.974 
07:00	68.9	68.9	68.9	87	64.9	0	2	270	0.00	29.978 
07:05	68.9	68.9	68.9	87	64.9	1	3	270	0.00	29.978 
07:10	69.1	69.1	69.1	86	64.7	1	4	270	0.00	29.978 
07:15	69.4	69.4	69.4	85	64.7	2	5	248	0.00	29.981 
07:20	69.6	69.6	69.6	85	64.9	1	5	270	0.00	29.981 
07:25	69.6	69.6	69.6	84	64.5	2	6	248	0.00	29.981 
07:30	69.8	69.8	69.8	85	65.1	1	4	248	0.00	29.976 
07:35	69.9	69.9	69.9	84	64.8	1	4	270	0.00	29.976 
07:40	70.3	70.3	70.3	84	65.2	1	4	248	0.00	29.976 
07:45	70.6	70.6	70.6	84	65.5	1	5	270	0.00	29.977 
07:50	70.8	70.8	70.8	84	65.7	2	6	270	0.00	29.977 
07:55	70.8	70.8	70.8	83	65.4	2	5	270	0.00	29.977 
08:00	70.9	70.9	70.9	84	65.8	1	4	270	0.00	29.987 
08:05	71.3	71.3	71.3	83	65.9	2	6	270	0.00	29.987 
08:10	71.8	71.8	71.8	81	65.6	3	5	248	0.00	29.987 
08:15	71.8	71.8	71.8	81	65.6	3	5	270	0.00	29.993 
08:20	71.8	71.8	71.8	81	65.6	3	6	270	0.00	29.993 
08:25	71.8	71.8	71.8	82	66.0	2	6	248	0.00	29.993 
08:30	72.0	72.0	72.0	81	65.8	2	5	270	0.00	29.996 
08:35	72.0	72.0	72.0	81	65.8	3	6	270	0.00	29.996 
08:40	72.0	72.0	72.0	81	65.8	3	7	270	0.00	29.996 
08:45	72.1	72.1	72.1	81	65.9	1	5	270	0.00	30.009 
08:50	72.1	72.1	72.1	81	65.9	2	5	270	0.00	30.009 
08:55	72.3	72.3	72.3	81	66.1	2	6	270	0.00	30.009 
09:00	72.3	72.3	72.3	81	66.1	2	5	270	0.00	30.007 
09:05	72.3	72.3	72.3	81	66.1	2	5	270	0.00	30.007 
09:10	72.3	72.3	72.3	81	66.1	3	6	270	0.00	30.007 
09:15	72.5	72.5	72.5	81	66.3	2	5	270	0.00	30.014 
09:20	72.8	72.8	72.8	81	66.6	1	4	225	0.00	30.014 
09:25	73.5	73.5	73.5	80	66.9	3	7	270	0.00	30.014 
09:30	73.9	73.9	73.9	80	67.3	1	4	270	0.00	30.017 
09:35	74.0	74.0	74.0	79	67.1	3	6	248	0.00	30.017 
09:40	73.9	73.9	73.9	79	67.0	3	6	248	0.00	30.017 
09:45	73.9	73.9	73.9	79	67.0	2	6	248	0.00	30.024 
09:50	74.0	74.0	74.0	80	67.4	3	7	248	0.00	30.024 
09:55	74.2	74.2	74.2	79	67.3	2	5	248	0.00	30.024 
10:00	74.6	74.6	74.6	80	68.0	3	7	270	0.00	30.022 
10:05	75.1	75.1	75.8	79	68.1	2	6	270	0.00	30.022 
10:10	75.4	75.4	76.3	78	68.0	3	8	248	0.00	30.022 
10:15	75.8	75.8	76.9	78	68.4	3	6	270	0.00	30.016 
10:20	76.3	76.3	77.6	77	68.5	2	6	270	0.00	30.016 
10:25	76.7	76.7	78.2	76	68.5	3	5	270	0.00	30.016 
10:30	76.8	76.8	78.4	75	68.3	4	7	270	0.00	30.016 
10:35	77.2	77.2	79.0	75	68.6	3	6	270	0.00	30.016 
10:40	77.7	77.7	79.7	74	68.7	2	6	270	0.00	30.016 
10:45	78.1	78.1	80.3	73	68.7	3	6	270	0.00	30.012 
10:50	78.1	78.1	80.3	73	68.7	3	6	270	0.00	30.012 
10:55	78.3	78.3	80.6	73	68.9	2	5	270	0.00	30.012 
11:00	78.6	78.6	81.0	72	68.8	3	6	270	0.00	30.007 
11:05	79.0	79.0	81.6	72	69.2	3	7	270	0.00	30.007 
11:10	79.2	79.2	81.9	72	69.4	3	5	292	0.00	30.007 
11:15	79.4	79.4	82.2	72	69.6	3	7	270	0.00	30.008 
11:20	79.8	79.8	82.7	71	69.5	2	4	270	0.00	30.008 
11:25	79.9	79.9	83.0	72	70.0	3	5	292	0.00	30.008 
11:30	79.9	79.9	82.8	70	69.2	3	6	270	0.00	30.003 
11:35	80.1	80.1	83.4	72	70.2	3	6	270	0.00	30.003 
11:40	80.5	80.5	83.9	71	70.2	2	5	292	0.00	30.003 
11:45	80.9	80.9	85.0	73	71.4	2	6	292	0.00	30.000 
11:50	81.2	81.2	85.3	72	71.3	2	4	270	0.00	30.000 
11:55	81.6	81.6	85.7	70	70.8	2	4	270	0.00	30.000 
12:00	81.6	81.6	86.1	72	71.7	2	5	270	0.00	29.990 
12:05	81.8	81.8	86.1	70	71.0	1	3	270	0.00	29.990 
12:10	82.0	82.0	86.2	69	70.8	2	4	270	0.00	29.990 
12:15	81.8	81.8	86.1	70	71.0	2	4	270	0.00	29.989 
12:20	82.2	82.2	86.8	70	71.4	2	6	270	0.00	29.989 
12:25	82.2	82.2	86.6	69	71.0	2	5	270	0.00	29.989 
12:30	82.4	82.4	87.2	70	71.6	2	5	292	0.00	29.990 
12:35	82.4	82.4	87.0	69	71.2	2	5	292	0.00	29.990 
12:40	82.4	82.4	87.0	69	71.2	2	5	338	0.00	29.990 
12:45	82.4	82.4	86.7	68	70.8	3	9	270	0.00	29.993 
12:50	82.4	82.4	87.0	69	71.2	2	5	270	0.00	29.993 
12:55	82.6	82.6	87.6	70	71.8	2	4	270	0.00	29.993 
13:00	83.2	83.2	88.8	70	72.4	3	5	292	0.00	29.993 
13:05	83.4	83.4	88.4	67	71.3	4	6	270	0.00	29.993 
13:10	83.0	83.0	87.6	67	70.9	3	6	270	0.00	29.993 
13:15	83.0	83.0	88.1	69	71.8	2	4	270	0.00	30.001 
13:20	83.6	83.6	88.7	67	71.5	3	5	270	0.00	30.001 
13:25	83.4	83.4	88.1	66	70.8	2	5	270	0.00	30.001 
13:30	82.8	82.8	87.2	67	70.7	3	4	270	0.00	30.011 
13:35	82.2	82.2	86.4	68	70.6	2	5	270	0.00	30.011 
13:40	82.2	82.2	86.6	69	71.0	2	5	292	0.00	30.011 
13:45	82.4	82.4	87.2	70	71.6	2	5	270	0.00	30.017 
13:50	83.0	83.0	88.1	69	71.8	2	4	270	0.00	30.017 
13:55	83.2	83.2	88.2	68	71.5	2	6	270	0.00	30.017 
14:00	83.2	83.2	88.0	67	71.1	3	5	292	0.00	30.018 
14:05	82.8	82.8	87.7	69	71.6	2	4	270	0.00	30.018 
14:10	82.4	82.4	87.0	69	71.2	3	6	270	0.00	30.018 
14:15	82.4	82.4	87.7	72	72.4	2	4	292	0.00	30.016 
14:20	82.4	82.4	86.7	68	70.8	3	7	270	0.00	30.016 
14:25	83.2	83.2	88.2	68	71.5	3	5	270	0.00	30.016 
14:30	83.6	83.6	88.2	65	70.6	3	6	270	0.00	30.009 
14:35	83.6	83.6	88.2	65	70.6	4	8	270	0.00	30.009 
14:40	84.0	84.0	88.9	65	70.9	2	6	292	0.00	30.009 
14:45	84.3	84.3	88.9	63	70.3	3	6	270	0.00	30.017 
14:50	84.5	84.5	89.6	64	71.0	3	6	270	0.00	30.017 
14:55	84.3	84.3	88.6	62	69.8	3	6	292	0.00	30.017 
15:00	84.0	84.0	88.9	65	70.9	3	6	270	0.00	30.017 
15:05	83.4	83.4	87.6	64	69.9	3	6	270	0.00	30.017 
15:10	83.6	83.6	88.2	65	70.6	2	5	270	0.00	30.017 
15:15	84.1	84.1	89.1	65	71.0	2	6	270	0.00	30.016 
15:20	84.9	84.9	89.7	62	70.4	3	6	270	0.00	30.016 
15:25	84.5	84.5	89.0	62	70.0	3	6	270	0.00	30.016 
15:30	84.3	84.3	88.6	62	69.8	3	6	270	0.00	30.018 
15:35	85.3	85.3	90.1	61	70.3	3	7	270	0.00	30.018 
15:40	85.7	85.7	90.2	59	69.7	4	6	270	0.00	30.018 
15:45	85.5	85.5	89.8	59	69.5	3	7	270	0.00	30.014 
15:50	84.9	84.9	89.7	62	70.4	3	6	270	0.00	30.014 
15:55	85.3	85.3	90.5	62	70.8	2	6	270	0.00	30.014 
16:00	85.9	85.9	91.6	62	71.3	2	5	270	0.00	30.005 
16:05	86.5	86.5	91.7	59	70.4	2	4	292	0.00	30.005 
16:10	86.3	86.3	90.9	58	69.7	2	5	270	0.00	30.005 
16:15	85.9	85.9	91.6	62	71.3	1	5	270	0.00	30.007 
16:20	86.1	86.1	90.9	59	70.1	2	5	270	0.00	30.007 
16:25	85.7	85.7	90.2	59	69.7	2	5	292	0.00	30.007 
16:30	85.3	85.3	89.8	60	69.8	2	4	270	0.00	30.005 
16:35	85.3	85.3	89.8	60	69.8	1	3	292	0.00	30.005 
16:40	85.7	85.7	91.2	62	71.1	1	4	292	0.00	30.005 
16:45	86.1	86.1	91.7	61	71.0	2	4	292	0.00	30.004 
16:50	86.3	86.3	91.7	60	70.7	1	3	270	0.00	30.004 
16:55	86.5	86.5	91.3	58	69.9	2	5	270	0.00	30.004 
17:00	86.1	86.1	90.9	59	70.1	3	7	292	0.00	30.004 
17:05	85.7	85.7	90.5	60	70.2	1	5	248	0.00	30.004 
17:10	85.7	85.7	89.5	57	68.7	3	6	292	0.00	30.004 
17:15	85.1	85.1	89.1	59	69.1	2	4	270	0.00	30.005 
17:20	84.9	84.9	89.1	60	69.4	1	3	270	0.00	30.005 
17:25	84.7	84.7	88.7	60	69.2	1	2	270	0.00	30.005 
17:30	84.7	84.7	89.0	61	69.7	1	5	292	0.00	30.004 
17:35	84.7	84.7	88.7	60	69.2	1	4	292	0.00	30.004 
17:40	84.9	84.9	89.4	61	69.9	1	3	248	0.00	30.004 
17:45	85.1	85.1	89.1	59	69.1	1	4	248	0.00	30.004 
17:50	85.1	85.1	88.8	58	68.6	2	5	292	0.00	30.004 
17:55	85.7	85.7	90.2	59	69.7	1	3	292	0.00	30.004 
18:00	85.7	85.7	90.2	59	69.7	1	4	270	0.00	30.004 
18:05	85.5	85.5	89.5	58	69.0	2	4	270	0.00	30.004 
18:10	85.1	85.1	89.4	60	69.6	2	6	270	0.00	30.004 
18:15	85.1	85.1	90.1	62	70.6	1	3	270	0.00	30.005 
18:20	85.1	85.1	90.1	62	70.6	1	4	270	0.00	30.005 
18:25	85.1	85.1	89.4	60	69.6	1	5	270	0.00	30.005 
18:30	85.1	85.1	89.8	61	70.1	2	5	270	0.00	30.004 
18:35	85.1	85.1	89.8	61	70.1	2	4	270	0.00	30.004 
18:40	85.1	85.1	89.4	60	69.6	2	5	292	0.00	30.004 
18:45	84.9	84.9	89.1	60	69.4	1	4	292	0.00	29.997 
18:50	84.9	84.9	89.4	61	69.9	1	3	292	0.00	29.997 
18:55	84.9	84.9	89.4	61	69.9	1	2	292	0.00	29.997 
19:00	84.9	84.9	89.4	61	69.9	2	4	292	0.00	29.996 
19:05	84.9	84.9	89.4	61	69.9	1	3	292	0.00	29.996 
19:10	84.9	84.9	89.4	61	69.9	1	3	292	0.00	29.996 
19:15	84.7	84.7	89.0	61	69.7	1	3	292	0.00	29.992 
19:20	84.7	84.7	89.3	62	70.2	0	2	315	0.00	29.992 
19:25	84.7	84.7	89.3	62	70.2	0	2	315	0.00	29.992 
19:30	84.7	84.7	89.3	62	70.2	0	2	315	0.00	29.990 
19:35	84.5	84.5	89.0	62	70.0	0	2	315	0.00	29.990 
19:40	84.7	84.7	89.0	61	69.7	1	4	315	0.00	29.990 
19:45	84.7	84.7	88.7	60	69.2	1	3	315	0.00	29.997 
19:50	84.5	84.5	88.7	61	69.5	1	2	338	0.00	29.997 
19:55	84.5	84.5	88.7	61	69.5	1	2	338	0.00	29.997 
20:00	84.3	84.3	88.6	62	69.8	0	0	---	0.00	30.005 
20:05	84.3	84.3	88.3	61	69.4	1	3	338	0.00	30.005 
20:10	84.1	84.1	88.0	61	69.2	0	2	338	0.00	30.005 
20:15	84.0	84.0	88.1	62	69.5	0	1	338	0.00	30.006 
20:20	83.6	83.6	87.6	63	69.6	0	1	338	0.00	30.006 
20:25	83.2	83.2	86.9	63	69.3	0	3	315	0.00	30.006 
20:30	83.0	83.0	86.6	63	69.1	0	1	315	0.00	30.011 
20:35	82.8	82.8	86.5	64	69.3	0	3	315	0.00	30.011 
20:40	82.4	82.4	85.6	63	68.5	1	3	315	0.00	30.011 
20:45	82.4	82.4	85.6	63	68.5	0	2	315	0.00	30.017 
20:50	82.2	82.2	85.3	63	68.3	0	2	315	0.00	30.017 
20:55	82.0	82.0	85.0	63	68.1	0	1	315	0.00	30.017 
21:00	81.8	81.8	84.7	63	67.9	0	2	315	0.00	30.021 
21:05	81.6	81.6	84.6	64	68.2	0	1	315	0.00	30.021 
21:10	81.4	81.4	84.3	64	68.0	0	1	315	0.00	30.021 
21:15	81.2	81.2	84.1	65	68.3	0	1	315	0.00	30.019 
21:20	81.1	81.1	84.0	65	68.2	0	1	315	0.00	30.019 
21:25	80.9	80.9	83.7	65	68.0	0	1	315	0.00	30.019 
21:30	80.7	80.7	83.5	66	68.3	0	0	---	0.00	30.020 
21:35	80.3	80.3	82.9	66	67.9	0	1	315	0.00	30.020 
21:40	80.3	80.3	82.9	66	67.9	0	1	315	0.00	30.020 
21:45	80.3	80.3	83.0	67	68.3	0	1	315	0.00	30.026 
21:50	80.1	80.1	82.9	68	68.6	0	0	---	0.00	30.026 
21:55	79.8	79.8	82.4	68	68.3	0	0	---	0.00	30.026 
22:00	79.6	79.6	82.2	69	68.5	0	0	---	0.00	30.026 
22:05	79.2	79.2	81.6	69	68.1	0	0	---	0.00	30.026 
22:10	79.0	79.0	81.3	69	67.9	0	1	315	0.00	30.026 
22:15	78.8	78.8	81.1	69	67.7	0	1	315	0.00	30.028 
22:20	78.6	78.6	80.8	69	67.6	0	1	315	0.00	30.028 
22:25	78.8	78.8	81.1	69	67.7	0	1	315	0.00	30.028 
22:30	78.6	78.6	80.8	69	67.6	0	0	---	0.00	30.028 
22:35	78.5	78.5	80.7	70	67.9	0	0	---	0.00	30.028 
22:40	78.3	78.3	80.5	71	68.1	0	1	315	0.00	30.028 
22:45	78.1	78.1	80.2	71	67.9	0	2	315	0.00	30.029 
22:50	77.9	77.9	79.9	71	67.7	0	1	315	0.00	30.029 
22:55	77.7	77.7	79.7	72	67.9	0	1	315	0.00	30.029 
23:00	77.6	77.6	79.5	72	67.8	0	1	315	0.00	30.030 
23:05	77.2	77.2	79.0	73	67.9	0	1	315	0.00	30.030 
23:10	77.2	77.2	79.0	73	67.9	0	2	270	0.00	30.030 
23:15	77.0	77.0	78.7	73	67.7	0	1	270	0.00	30.033 
23:20	76.8	76.8	78.4	74	67.9	0	1	270	0.00	30.033 
23:25	76.8	76.8	78.4	74	67.9	0	2	270	0.00	30.033 
23:30	76.7	76.7	78.3	74	67.8	0	1	270	0.00	30.032 
23:35	76.7	76.7	78.3	74	67.8	0	2	270	0.00	30.032 
23:40	76.7	76.7	78.3	74	67.8	0	1	270	0.00	30.032 
23:45	76.5	76.5	78.1	74	67.6	0	1	270	0.00	30.031 
23:50	76.3	76.3	77.8	74	67.4	0	1	270	0.00	30.031 
23:55	76.1	76.1	77.5	74	67.2	0	1	270	0.00	30.031 

CoCoRaHS
IN-AL-39
A2 Web Hosting
Creative Commons License
GoDaddy
search engine by freefind advanced

loaded 2018-11-19 10:22:35 • last modified 2010-11-18 10:43:29
Privacy PolicyDisclaimer
• wx.awcolley.com is powered by PmWiki v.2002016 •
• all content (unless otherwise noted) © 2018 A W Colley